Time;durP1;ratioP1;P1;durP2;ratioP2;P2;SDS_P1;SDS_P2;PMS_P1;PMS_P2;Temp;Humidity;BMP_temperature;BMP_pressure;BME280_temperature;BME280_humidity;BME280_pressure;Samples;Min_cycle;Max_cycle;Signal;HPM_P1;HPM_P2
2021/08/04 00:01:00;;;;;;;4.25;2.65;;;589.60;1740.80;;;;;;5094463;28;20016;-76
2021/08/04 00:03:26;;;;;;;3.70;2.70;;;589.50;1792.00;;;;;;5093106;28;20048;-76
2021/08/04 00:05:52;;;;;;;3.92;2.83;;;589.50;1766.40;;;;;;5094505;28;20055;-73
2021/08/04 00:08:18;;;;;;;3.35;2.78;;;589.60;1766.40;;;;;;5094501;28;20451;-72
2021/08/04 00:10:44;;;;;;;4.85;3.10;;;589.60;1766.40;;;;;;5094173;28;20387;-73
2021/08/04 00:13:11;;;;;;;3.90;2.75;;;589.60;1740.80;;;;;;5094305;28;20023;-76
2021/08/04 00:15:37;;;;;;;4.13;3.05;;;589.70;1740.80;;;;;;5094135;28;20020;-76
2021/08/04 00:18:03;;;;;;;4.57;3.10;;;589.60;1740.80;;;;;;5094013;28;20398;-75
2021/08/04 00:20:29;;;;;;;4.80;3.50;;;614.40;1766.40;;;;;;5094129;28;20032;-75
2021/08/04 00:22:55;;;;;;;4.80;3.75;;;614.40;1766.40;;;;;;5092721;28;20021;-75
2021/08/04 00:25:21;;;;;;;7.18;3.92;;;614.40;1766.40;;;;;;5094002;28;20035;-72
2021/08/04 00:27:47;;;;;;;4.80;4.00;;;614.40;1766.40;;;;;;5093891;28;20149;-75
2021/08/04 00:30:13;;;;;;;6.28;4.30;;;614.40;1766.40;;;;;;5093885;28;20031;-75
2021/08/04 00:32:39;;;;;;;5.07;3.70;;;614.40;1766.40;;;;;;5094063;28;20031;-72
2021/08/04 00:35:05;;;;;;;6.07;3.90;;;614.40;1766.40;;;;;;5093797;28;20484;-72
2021/08/04 00:37:31;;;;;;;11.68;4.90;;;589.70;1792.00;;;;;;5093955;28;20027;-73
2021/08/04 00:39:57;;;;;;;8.23;4.47;;;614.40;1766.40;;;;;;5093666;28;20020;-75
2021/08/04 00:42:23;;;;;;;5.55;4.35;;;614.40;1766.40;;;;;;5093690;28;20016;-75
2021/08/04 00:44:49;;;;;;;10.68;4.25;;;589.70;1766.40;;;;;;5092372;28;20027;-74
2021/08/04 00:47:17;;;;;;;5.10;3.70;;;614.40;1740.80;;;;;;5093512;28;20047;-74
2021/08/04 00:49:43;;;;;;;6.57;4.28;;;614.40;1715.20;;;;;;5093612;28;20024;-72
2021/08/04 00:52:09;;;;;;;6.25;3.80;;;614.40;1715.20;;;;;;5092294;28;20024;-75
2021/08/04 00:54:35;;;;;;;8.50;3.80;;;614.40;1715.20;;;;;;5093538;28;20415;-76
2021/08/04 00:57:02;;;;;;;7.75;3.63;;;614.40;1715.20;;;;;;5093774;28;20024;-75
2021/08/04 00:59:28;;;;;;;7.60;3.80;;;614.40;1715.20;;;;;;5093477;28;20499;-76
2021/08/04 01:02:23;;;;;;;7.35;3.67;;;614.40;1689.60;;;;;;5093432;28;20032;-72
2021/08/04 01:04:51;;;;;;;5.88;3.15;;;614.40;1689.60;;;;;;5092993;28;20054;-76
2021/08/04 01:07:38;;;;;;;6.60;3.72;;;614.50;1689.60;;;;;;5093241;28;20095;-75
2021/08/04 01:10:33;;;;;;;6.65;4.15;;;614.40;1689.60;;;;;;5091896;28;20024;-75
2021/08/04 01:13:14;;;;;;;5.68;3.65;;;589.70;1740.80;;;;;;5088887;28;20030;-75
2021/08/04 01:15:56;;;;;;;5.07;3.45;;;589.70;1740.80;;;;;;5092096;28;20021;-75
2021/08/04 01:18:26;;;;;;;4.45;3.38;;;589.70;1740.80;;;;;;5093475;28;20081;-74
2021/08/04 01:20:53;;;;;;;9.13;3.70;;;589.70;1740.80;;;;;;5093409;28;20020;-72
2021/08/04 01:23:36;;;;;;;7.57;4.22;;;589.70;1766.40;;;;;;5093220;28;20081;-75
2021/08/04 01:26:11;;;;;;;5.07;3.97;;;589.70;1740.80;;;;;;5093329;28;20020;-72
2021/08/04 01:28:42;;;;;;;6.13;3.80;;;589.70;1766.40;;;;;;5093143;28;20040;-75
2021/08/04 01:31:12;;;;;;;6.65;3.88;;;614.40;1740.80;;;;;;5092049;28;20051;-74
2021/08/04 01:33:49;;;;;;;5.18;3.47;;;614.40;1740.80;;;;;;5093217;28;20027;-74
2021/08/04 01:36:16;;;;;;;4.40;3.38;;;614.40;1715.20;;;;;;5093176;28;20046;-73
2021/08/04 01:38:43;;;;;;;6.75;3.92;;;614.40;1715.20;;;;;;5093184;28;20020;-74
2021/08/04 01:41:11;;;;;;;6.88;3.45;;;614.40;1715.20;;;;;;5093417;28;20464;-74
2021/08/04 01:43:39;;;;;;;5.47;3.92;;;614.40;1715.20;;;;;;5093310;28;20073;-72
2021/08/04 01:46:07;;;;;;;7.25;4.32;;;614.40;1740.80;;;;;;5093000;28;20024;-74
2021/08/04 01:48:36;;;;;;;6.85;4.45;;;614.40;1766.40;;;;;;5092712;28;20048;-72
2021/08/04 01:51:04;;;;;;;6.47;4.47;;;614.40;1740.80;;;;;;5092905;28;20027;-74
2021/08/04 01:53:32;;;;;;;5.80;4.20;;;614.40;1766.40;;;;;;5093004;28;20024;-76
2021/08/04 01:55:59;;;;;;;7.68;4.32;;;614.40;1792.00;;;;;;5091685;28;20085;-75
2021/08/04 01:58:25;;;;;;;6.72;3.63;;;614.40;1792.00;;;;;;5091724;28;20028;-75
2021/08/04 02:00:51;;;;;;;6.93;3.58;;;614.40;1792.00;;;;;;5092917;28;20027;-72
2021/08/04 02:03:20;;;;;;;5.28;3.50;;;614.40;1766.40;;;;;;5092893;28;20098;-75
2021/08/04 02:05:47;;;;;;;5.82;3.55;;;614.40;1766.40;;;;;;5091593;28;20059;-72
2021/08/04 02:08:33;;;;;;;6.03;3.58;;;614.40;1792.00;;;;;;5094367;28;20081;-72
2021/08/04 02:11:15;;;;;;;5.13;3.30;;;589.70;1792.00;;;;;;5095241;28;20042;-76
2021/08/04 02:14:04;;;;;;;5.15;3.45;;;589.70;1817.60;;;;;;5096939;28;20099;-71
2021/08/04 02:16:51;;;;;;;5.53;3.28;;;589.70;1792.00;;;;;;5096563;28;20095;-74
2021/08/04 02:19:23;;;;;;;6.53;3.70;;;589.70;1817.60;;;;;;5096364;28;20055;-76
2021/08/04 02:21:55;;;;;;;6.40;3.10;;;589.70;1792.00;;;;;;5096367;28;20027;-75
2021/08/04 02:24:23;;;;;;;4.63;3.50;;;589.70;1817.60;;;;;;5096619;28;20023;-76
2021/08/04 02:26:50;;;;;;;6.28;3.13;;;589.70;1792.00;;;;;;5096164;28;20053;-76
2021/08/04 02:29:19;;;;;;;5.60;3.38;;;589.70;1792.00;;;;;;5094767;28;20032;-75
2021/08/04 02:31:46;;;;;;;4.30;3.30;;;589.70;1817.60;;;;;;5094827;28;20059;-73
2021/08/04 02:34:15;;;;;;;9.15;3.63;;;589.70;1817.60;;;;;;5096379;28;20070;-71
2021/08/04 02:36:41;;;;;;;6.07;3.33;;;589.70;1868.80;;;;;;5096275;28;20124;-72
2021/08/04 02:39:08;;;;;;;5.63;3.60;;;589.70;1843.20;;;;;;5095968;28;20020;-75
2021/08/04 02:41:34;;;;;;;4.10;3.20;;;589.70;1843.20;;;;;;5095940;28;20031;-73
2021/08/04 02:44:03;;;;;;;4.30;3.20;;;589.70;1817.60;;;;;;5095894;28;20028;-76
2021/08/04 02:46:30;;;;;;;5.82;3.13;;;589.50;1843.20;;;;;;5095791;28;20384;-75
2021/08/04 02:48:57;;;;;;;5.50;3.20;;;589.50;1817.60;;;;;;5095645;28;20068;-76
2021/08/04 02:51:24;;;;;;;7.07;3.88;;;589.50;1817.60;;;;;;5095991;28;20020;-75
2021/08/04 02:53:55;;;;;;;5.60;3.38;;;589.50;1817.60;;;;;;5095779;28;20020;-74
2021/08/04 02:56:21;;;;;;;4.55;3.13;;;589.50;1817.60;;;;;;5095593;28;20016;-76
2021/08/04 02:58:46;;;;;;;5.05;3.22;;;589.60;1843.20;;;;;;5095732;28;20365;-72
2021/08/04 03:01:12;;;;;;;6.70;3.53;;;589.60;1843.20;;;;;;5095711;28;20498;-73
2021/08/04 03:03:38;;;;;;;5.95;3.08;;;589.60;1843.20;;;;;;5095720;28;20024;-71
2021/08/04 03:06:04;;;;;;;7.28;3.30;;;589.70;1817.60;;;;;;5094371;28;20067;-75
2021/08/04 03:08:30;;;;;;;4.95;3.17;;;589.60;1843.20;;;;;;5095862;28;20062;-75
2021/08/04 03:10:56;;;;;;;3.88;3.15;;;589.50;1817.60;;;;;;5095591;28;20384;-76
2021/08/04 03:13:22;;;;;;;5.43;3.10;;;589.50;1843.20;;;;;;5095418;28;20036;-74
2021/08/04 03:15:48;;;;;;;7.03;3.30;;;589.50;1843.20;;;;;;5095483;28;20108;-72
2021/08/04 03:18:14;;;;;;;4.05;3.30;;;589.50;1843.20;;;;;;5093701;28;20353;-75
2021/08/04 03:20:40;;;;;;;5.90;3.00;;;589.50;1817.60;;;;;;5095372;28;20082;-76
2021/08/04 03:23:06;;;;;;;5.05;3.38;;;589.50;1843.20;;;;;;5095211;28;20024;-72
2021/08/04 03:25:33;;;;;;;7.28;3.65;;;589.30;1868.80;;;;;;5093939;28;20475;-75
2021/08/04 03:27:58;;;;;;;4.97;3.38;;;589.40;1843.20;;;;;;5094913;28;20039;-75
2021/08/04 03:30:24;;;;;;;4.00;3.38;;;589.30;1868.80;;;;;;5095059;28;20019;-72
2021/08/04 03:32:50;;;;;;;5.63;3.53;;;589.40;1868.80;;;;;;5093634;28;20028;-75
2021/08/04 03:35:16;;;;;;;7.20;3.53;;;589.30;1894.40;;;;;;5094945;28;20035;-75
2021/08/04 03:37:43;;;;;;;4.78;3.72;;;589.30;1868.80;;;;;;5094930;28;20417;-72
2021/08/04 03:40:10;;;;;;;5.03;3.17;;;589.40;1868.80;;;;;;5094909;28;20047;-76
2021/08/04 03:42:36;;;;;;;6.20;3.60;;;589.40;1868.80;;;;;;5094622;28;20024;-76
2021/08/04 03:45:03;;;;;;;12.27;4.30;;;589.40;1894.40;;;;;;5095132;28;20038;-73
2021/08/04 03:47:29;;;;;;;9.13;4.13;;;589.30;1920.00;;;;;;5094458;28;20040;-75
2021/08/04 03:49:55;;;;;;;5.95;3.63;;;589.10;1920.00;;;;;;5094907;28;20477;-76
2021/08/04 03:52:21;;;;;;;7.70;3.58;;;589.20;1894.40;;;;;;5094412;28;20036;-75
2021/08/04 03:54:48;;;;;;;11.15;4.25;;;589.30;1868.80;;;;;;5094559;28;20104;-72
2021/08/04 03:57:14;;;;;;;4.55;3.67;;;589.20;1894.40;;;;;;5094471;28;20024;-74
2021/08/04 03:59:40;;;;;;;6.93;4.20;;;589.20;1894.40;;;;;;5094468;28;20047;-71
2021/08/04 04:02:06;;;;;;;6.47;4.20;;;589.10;1894.40;;;;;;5094583;28;20468;-76
2021/08/04 04:04:32;;;;;;;7.78;3.97;;;589.20;1868.80;;;;;;5094390;28;20039;-73
2021/08/04 04:06:58;;;;;;;8.52;4.10;;;589.20;1894.40;;;;;;5094390;28;20427;-72
2021/08/04 04:09:24;;;;;;;13.30;4.55;;;589.20;1920.00;;;;;;5094370;28;20040;-72
2021/08/04 04:11:50;;;;;;;11.00;4.60;;;589.20;1920.00;;;;;;5094664;28;20086;-72
2021/08/04 04:14:16;;;;;;;9.70;3.92;;;589.10;1894.40;;;;;;5094362;28;20384;-75
2021/08/04 04:16:42;;;;;;;9.60;4.30;;;589.30;1894.40;;;;;;5094336;28;20020;-72
2021/08/04 04:19:08;;;;;;;13.25;4.60;;;589.30;1894.40;;;;;;5094535;28;20031;-72
2021/08/04 04:21:35;;;;;;;6.95;5.43;;;589.30;1894.40;;;;;;5094178;28;20020;-72
2021/08/04 04:24:01;;;;;;;8.05;4.32;;;589.20;1894.40;;;;;;5092888;28;20053;-72
2021/08/04 04:26:27;;;;;;;8.30;4.80;;;589.30;1894.40;;;;;;5094075;28;20024;-74
2021/08/04 04:28:52;;;;;;;9.30;4.72;;;589.30;1894.40;;;;;;5093902;28;20043;-72
2021/08/04 04:31:18;;;;;;;9.68;4.40;;;589.20;1920.00;;;;;;5093500;28;20051;-76
2021/08/04 04:33:44;;;;;;;9.77;4.50;;;589.10;1945.60;;;;;;5093897;28;20095;-72
2021/08/04 04:36:10;;;;;;;8.60;4.55;;;589.20;1920.00;;;;;;5093936;28;20365;-76
2021/08/04 04:38:36;;;;;;;6.97;4.63;;;589.20;1945.60;;;;;;5093833;28;20024;-72
2021/08/04 04:41:01;;;;;;;9.32;5.75;;;589.30;1894.40;;;;;;5093852;28;20024;-75
2021/08/04 04:43:27;;;;;;;9.70;5.25;;;589.30;1920.00;;;;;;5092484;28;20027;-76
2021/08/04 04:45:53;;;;;;;9.75;5.03;;;589.30;1920.00;;;;;;5092460;28;20468;-72
2021/08/04 04:48:20;;;;;;;8.85;5.03;;;589.30;1920.00;;;;;;5092213;28;20112;-75
2021/08/04 04:50:46;;;;;;;8.38;4.95;;;589.30;1920.00;;;;;;5093525;28;20028;-75
2021/08/04 04:53:12;;;;;;;5.50;4.50;;;589.30;1920.00;;;;;;5093450;28;20026;-73
2021/08/04 04:55:38;;;;;;;9.13;4.82;;;589.40;1894.40;;;;;;5093569;28;20032;-76
2021/08/04 04:58:04;;;;;;;10.23;4.68;;;589.40;1894.40;;;;;;5092266;28;20044;-72
2021/08/04 05:00:30;;;;;;;8.32;4.90;;;589.40;1894.40;;;;;;5092309;28;20425;-75
2021/08/04 05:02:56;;;;;;;7.10;4.85;;;589.50;1894.40;;;;;;5093132;28;20025;-72
2021/08/04 05:05:21;;;;;;;7.25;4.28;;;589.50;1894.40;;;;;;5091854;28;20108;-72
2021/08/04 05:07:47;;;;;;;7.63;5.10;;;589.40;1894.40;;;;;;5091536;28;20036;-72
2021/08/04 05:10:13;;;;;;;10.40;4.55;;;589.40;1894.40;;;;;;5091555;28;20028;-71
2021/08/04 05:12:39;;;;;;;7.65;5.05;;;589.50;1894.40;;;;;;5091553;28;20019;-74
2021/08/04 05:15:06;;;;;;;5.57;4.75;;;589.40;1894.40;;;;;;5091435;28;20107;-72
2021/08/04 05:17:32;;;;;;;8.05;5.03;;;589.40;1894.40;;;;;;5091476;28;20021;-72
2021/08/04 05:19:58;;;;;;;8.45;5.05;;;589.50;1894.40;;;;;;5092100;28;20028;-72
2021/08/04 05:22:24;;;;;;;8.18;4.57;;;589.50;1894.40;;;;;;5093272;28;20024;-77
2021/08/04 05:24:50;;;;;;;12.15;5.65;;;589.50;1868.80;;;;;;5093295;28;20495;-75
2021/08/04 05:27:15;;;;;;;23.40;21.25;;;589.50;1868.80;;;;;;5093172;28;20149;-75
2021/08/04 05:29:41;;;;;;;15.32;13.25;;;589.50;1868.80;;;;;;5093644;28;20028;-76
2021/08/04 05:32:07;;;;;;;18.75;15.73;;;589.50;1894.40;;;;;;5093300;28;20023;-76
2021/08/04 05:34:33;;;;;;;6.65;5.95;;;589.50;1868.80;;;;;;5093292;28;20420;-74
2021/08/04 05:36:59;;;;;;;7.30;5.10;;;589.60;1868.80;;;;;;5093365;28;20020;-72
2021/08/04 05:39:25;;;;;;;6.82;4.10;;;589.70;1894.40;;;;;;5091943;28;20141;-75
2021/08/04 05:41:51;;;;;;;7.75;4.65;;;614.40;1868.80;;;;;;5095971;28;20182;-76
2021/08/04 05:44:17;;;;;;;10.77;4.50;;;614.40;1894.40;;;;;;5095940;28;20442;-75
2021/08/04 05:46:43;;;;;;;6.00;4.10;;;614.40;1894.40;;;;;;5096892;28;20503;-72
2021/08/04 05:49:09;;;;;;;6.10;4.55;;;614.40;1868.80;;;;;;5097412;28;20141;-72
2021/08/04 05:51:35;;;;;;;8.02;4.82;;;614.40;1843.20;;;;;;5097064;28;20066;-71
2021/08/04 05:54:01;;;;;;;7.47;4.38;;;614.40;1868.80;;;;;;5097090;28;20024;-76
2021/08/04 05:56:27;;;;;;;7.28;4.22;;;614.40;1843.20;;;;;;5095619;28;20111;-76
2021/08/04 05:58:53;;;;;;;91.47;83.47;;;614.50;1843.20;;;;;;5097113;28;20078;-72
2021/08/04 06:01:19;;;;;;;25.85;22.02;;;614.50;1843.20;;;;;;5096748;28;20476;-76
2021/08/04 06:03:44;;;;;;;14.30;12.27;;;614.40;1843.20;;;;;;5096882;28;20027;-72
2021/08/04 06:06:10;;;;;;;8.73;6.40;;;614.40;1843.20;;;;;;5097225;28;20076;-76
2021/08/04 06:08:36;;;;;;;7.53;4.45;;;614.50;1843.20;;;;;;5096706;28;20039;-77
2021/08/04 06:11:02;;;;;;;10.30;4.70;;;614.40;1843.20;;;;;;5096504;28;20030;-73
2021/08/04 06:13:28;;;;;;;4.05;3.60;;;614.50;1843.20;;;;;;5096614;28;20032;-75
2021/08/04 06:15:54;;;;;;;7.95;3.95;;;614.50;1817.60;;;;;;5096600;28;20107;-72
2021/08/04 06:18:20;;;;;;;6.25;3.63;;;614.60;1817.60;;;;;;5096592;28;20481;-77
2021/08/04 06:20:47;;;;;;;7.00;4.03;;;614.60;1843.20;;;;;;5095336;28;20430;-78
2021/08/04 06:23:13;;;;;;;8.10;4.70;;;614.70;1817.60;;;;;;5096462;28;20016;-72
2021/08/04 06:25:39;;;;;;;7.10;3.97;;;614.70;1817.60;;;;;;5096493;28;20024;-75
2021/08/04 06:28:05;;;;;;;6.68;4.03;;;614.80;1817.60;;;;;;5096297;28;20100;-72
2021/08/04 06:30:31;;;;;;;6.13;2.95;;;614.80;1817.60;;;;;;5096304;28;20030;-72
2021/08/04 06:32:57;;;;;;;5.03;3.30;;;614.90;1766.40;;;;;;5096307;28;20024;-75
2021/08/04 06:35:23;;;;;;;6.43;3.53;;;615.00;1766.40;;;;;;5096195;28;20089;-72
2021/08/04 06:37:49;;;;;;;12.10;10.63;;;615.10;1740.80;;;;;;5094936;28;20389;-72
2021/08/04 06:40:15;;;;;;;13.05;8.13;;;615.20;1740.80;;;;;;5096212;28;20024;-74
2021/08/04 06:42:42;;;;;;;10.50;4.63;;;615.30;1715.20;;;;;;5096121;28;20069;-72
2021/08/04 06:45:09;;;;;;;6.60;3.47;;;615.30;1715.20;;;;;;5096131;28;20084;-72
2021/08/04 06:47:35;;;;;;;7.63;3.30;;;640.00;1715.20;;;;;;5095523;28;20485;-74
2021/08/04 06:50:01;;;;;;;8.02;2.88;;;640.00;1740.80;;;;;;5095979;28;20030;-71
2021/08/04 06:52:27;;;;;;;4.95;3.10;;;640.00;1740.80;;;;;;5095146;28;20392;-72
2021/08/04 06:54:53;;;;;;;3.58;2.53;;;640.00;1740.80;;;;;;5095835;28;20110;-74
2021/08/04 06:57:19;;;;;;;4.43;3.00;;;640.10;1740.80;;;;;;5095862;28;20109;-76
2021/08/04 06:59:45;;;;;;;4.32;2.90;;;640.20;1715.20;;;;;;5094474;28;20032;-75
2021/08/04 07:02:10;;;;;;;5.03;3.08;;;640.20;1740.80;;;;;;5094317;28;20422;-77
2021/08/04 07:04:36;;;;;;;4.05;2.85;;;640.40;1715.20;;;;;;5094411;28;20131;-79
2021/08/04 07:07:03;;;;;;;4.28;2.85;;;640.50;1715.20;;;;;;5094434;28;20023;-77
2021/08/04 07:09:33;;;;;;;4.78;2.95;;;640.40;1715.20;;;;;;5095523;28;20039;-83
2021/08/04 07:11:59;;;;;;;5.25;2.85;;;640.70;1664.00;;;;;;5094569;28;20026;-79
2021/08/04 07:14:25;;;;;;;3.85;2.70;;;640.80;1638.40;;;;;;5091340;28;20425;-74
2021/08/04 07:16:51;;;;;;;6.95;2.78;;;640.90;1664.00;;;;;;5077873;28;20028;-72
2021/08/04 07:19:17;;;;;;;6.65;2.90;;;665.60;1638.40;;;;;;5095271;28;20024;-73
2021/08/04 07:21:44;;;;;;;5.40;3.13;;;665.70;1638.40;;;;;;5094548;28;20061;-73
2021/08/04 07:24:11;;;;;;;4.95;3.05;;;665.70;1664.00;;;;;;5093145;28;20024;-75
2021/08/04 07:26:39;;;;;;;4.90;2.85;;;665.80;1689.60;;;;;;5094641;28;20391;-75
2021/08/04 07:29:05;;;;;;;8.55;3.60;;;666.00;1689.60;;;;;;5094342;28;20168;-75
2021/08/04 07:31:32;;;;;;;15.70;5.32;;;665.90;1689.60;;;;;;5094781;28;20460;-72
2021/08/04 07:33:58;;;;;;;8.32;4.15;;;666.00;1689.60;;;;;;5094299;28;20020;-72
2021/08/04 07:36:24;;;;;;;13.07;4.55;;;666.10;1612.80;;;;;;5094494;28;20023;-73
2021/08/04 07:38:50;;;;;;;5.90;2.70;;;666.10;1638.40;;;;;;5094092;28;20069;-73
2021/08/04 07:41:17;;;;;;;6.93;3.28;;;666.10;1638.40;;;;;;5094658;28;20028;-73
2021/08/04 07:43:43;;;;;;;13.43;3.75;;;666.30;1664.00;;;;;;5094062;28;20020;-76
2021/08/04 07:46:09;;;;;;;12.35;3.33;;;666.30;1664.00;;;;;;5094101;28;20537;-72
2021/08/04 07:48:35;;;;;;;6.53;2.63;;;666.40;1664.00;;;;;;5094100;28;20048;-73
2021/08/04 07:51:02;;;;;;;7.82;2.70;;;666.40;1664.00;;;;;;5094065;28;20484;-73
2021/08/04 07:53:29;;;;;;;20.77;3.55;;;666.50;1638.40;;;;;;5093141;28;20031;-73
2021/08/04 07:55:55;;;;;;;19.42;3.65;;;666.50;1638.40;;;;;;5093569;28;20020;-72
2021/08/04 07:58:21;;;;;;;14.48;3.28;;;691.20;1638.40;;;;;;5094325;28;20093;-72
2021/08/04 08:00:47;;;;;;;17.63;3.08;;;691.20;1612.80;;;;;;5092071;28;20028;-72
2021/08/04 08:03:13;;;;;;;5.20;2.10;;;691.20;1587.20;;;;;;5092819;28;20551;-82
2021/08/04 08:05:39;;;;;;;3.42;2.15;;;691.20;1484.80;;;;;;5090228;28;20077;-74
2021/08/04 08:08:05;;;;;;;6.57;2.05;;;691.20;1561.60;;;;;;5092574;28;20491;-75
2021/08/04 08:10:36;;;;;;;26.33;3.33;;;691.20;1561.60;;;;;;5092996;28;20445;-73
2021/08/04 08:13:02;;;;;;;16.38;3.13;;;691.30;1612.80;;;;;;5092308;28;20012;-75
2021/08/04 08:15:29;;;;;;;12.65;2.80;;;691.30;1587.20;;;;;;5092499;28;20051;-75
2021/08/04 08:17:55;;;;;;;7.18;2.80;;;691.40;1587.20;;;;;;5089140;28;20020;-74
2021/08/04 08:20:21;;;;;;;9.68;2.88;;;691.30;1561.60;;;;;;5092479;28;20020;-72
2021/08/04 08:22:48;;;;;;;6.28;2.88;;;691.40;1587.20;;;;;;5091846;28;20103;-73
2021/08/04 08:25:14;;;;;;;13.45;3.15;;;691.40;1561.60;;;;;;5092056;28;20020;-74
2021/08/04 08:27:41;;;;;;;4.60;2.83;;;691.40;1587.20;;;;;;5091817;28;20476;-73
2021/08/04 08:30:08;;;;;;;11.25;2.72;;;691.40;1536.00;;;;;;5090764;28;20052;-74
2021/08/04 08:32:34;;;;;;;8.32;2.50;;;691.50;1561.60;;;;;;5092153;28;20100;-74
2021/08/04 08:35:00;;;;;;;4.55;2.28;;;691.50;1536.00;;;;;;5091821;28;20488;-73
2021/08/04 08:48:05;;;;;;;4.40;2.30;;;691.50;1433.60;;;;;;5142054;27;20381;-76
2021/08/04 08:50:32;;;;;;;6.88;2.67;;;692.00;1382.40;;;;;;5138667;27;20023;-72
2021/08/04 08:52:58;;;;;;;14.93;3.30;;;691.80;1408.00;;;;;;5122376;27;20045;-72
2021/08/04 08:55:24;;;;;;;18.70;3.78;;;691.90;1484.80;;;;;;5140425;27;20012;-74
2021/08/04 08:57:51;;;;;;;12.15;3.40;;;691.80;1536.00;;;;;;5138888;27;20019;-73
2021/08/04 09:00:17;;;;;;;5.82;2.47;;;691.80;1536.00;;;;;;5140570;27;20050;-77
2021/08/04 09:02:43;;;;;;;12.85;3.05;;;691.70;1536.00;;;;;;5140202;27;20055;-75
2021/08/04 09:05:11;;;;;;;9.65;3.03;;;691.70;1536.00;;;;;;5120745;27;20024;-75
2021/08/04 09:07:42;;;;;;;8.48;3.17;;;691.70;1484.80;;;;;;5139870;27;20404;-72
2021/08/04 09:10:30;;;;;;;14.23;2.83;;;691.70;1561.60;;;;;;5141004;27;20019;-73
2021/08/04 09:13:14;;;;;;;7.40;3.00;;;691.70;1536.00;;;;;;5138603;27;20016;-74
2021/08/04 09:27:03;;;;;;;12.98;3.22;;;691.80;1484.80;;;;;;5104855;27;1558088;-77
2021/08/04 09:29:29;;;;;;;12.48;2.90;;;716.90;1433.60;;;;;;5139335;27;20019;-77
2021/08/04 09:31:56;;;;;;;12.65;2.80;;;716.80;1510.40;;;;;;5139101;27;20016;-77
2021/08/04 09:34:33;;;;;;;8.27;2.45;;;692.00;1484.80;;;;;;5121514;27;20054;-78
2021/08/04 09:37:09;;;;;;;8.55;2.65;;;691.90;1484.80;;;;;;5137714;27;20015;-77
2021/08/04 09:39:38;;;;;;;8.00;2.35;;;691.90;1484.80;;;;;;5118894;27;20028;-74
2021/08/04 09:42:04;;;;;;;26.90;4.35;;;691.80;1484.80;;;;;;5139247;27;20052;-75
2021/08/04 09:44:30;;;;;;;21.90;3.55;;;691.80;1510.40;;;;;;5138871;27;20035;-77
2021/08/04 09:47:13;;;;;;;59.30;5.85;;;691.70;1510.40;;;;;;5141592;27;20016;-76
2021/08/04 09:49:43;;;;;;;44.17;4.38;;;691.70;1510.40;;;;;;5139020;27;20027;-76
2021/08/04 09:52:11;;;;;;;8.95;3.30;;;691.70;1510.40;;;;;;5138383;27;20379;-75
2021/08/04 09:54:42;;;;;;;32.78;3.80;;;691.80;1382.40;;;;;;5130539;28;20055;-77
2021/08/04 09:57:12;;;;;;;53.38;5.82;;;691.80;1510.40;;;;;;5131037;28;20378;-77
2021/08/04 09:59:38;;;;;;;86.95;8.38;;;691.80;1510.40;;;;;;5130849;28;20028;-76
2021/08/04 10:02:05;;;;;;;38.97;5.47;;;691.70;1536.00;;;;;;5130541;28;20034;-76
2021/08/04 10:04:34;;;;;;;18.80;4.63;;;691.70;1536.00;;;;;;5130271;28;20054;-76
2021/08/04 10:07:11;;;;;;;37.35;5.05;;;691.70;1510.40;;;;;;5130372;28;20433;-76
2021/08/04 10:09:37;;;;;;;17.95;4.45;;;691.70;1536.00;;;;;;5129293;28;20468;-75
2021/08/04 10:12:05;;;;;;;13.45;3.83;;;691.70;1510.40;;;;;;5128619;28;20076;-76
2021/08/04 10:14:31;;;;;;;12.52;3.47;;;691.60;1510.40;;;;;;5129698;28;20032;-75
2021/08/04 10:16:58;;;;;;;11.80;3.72;;;691.70;1510.40;;;;;;5129682;28;20039;-78
2021/08/04 10:19:25;;;;;;;9.63;3.60;;;691.70;1510.40;;;;;;5130107;28;20471;-78
2021/08/04 10:21:52;;;;;;;9.70;3.53;;;691.70;1510.40;;;;;;5129614;28;20031;-76
2021/08/04 10:24:19;;;;;;;8.65;3.95;;;691.70;1510.40;;;;;;5111764;28;20498;-77
2021/08/04 10:26:46;;;;;;;13.20;3.58;;;691.70;1484.80;;;;;;5104631;28;20399;-77
2021/08/04 10:29:12;;;;;;;7.20;3.10;;;691.60;1510.40;;;;;;5116402;28;20019;-77
2021/08/04 10:31:42;;;;;;;18.52;3.97;;;691.70;1510.40;;;;;;5115899;28;20034;-77
2021/08/04 10:34:09;;;;;;;7.43;3.67;;;691.60;1510.40;;;;;;5116532;28;20020;-77
2021/08/04 10:36:41;;;;;;;6.32;3.45;;;691.70;1510.40;;;;;;5116049;28;20036;-77
2021/08/04 10:39:09;;;;;;;10.40;3.45;;;691.70;1510.40;;;;;;5115965;28;20379;-77
2021/08/04 10:41:36;;;;;;;6.38;3.20;;;691.70;1510.40;;;;;;5116183;28;20032;-77
2021/08/04 10:44:07;;;;;;;8.07;3.10;;;691.60;1510.40;;;;;;5115882;28;20103;-77
2021/08/04 10:46:37;;;;;;;6.95;3.42;;;691.70;1510.40;;;;;;5116350;28;20047;-77
2021/08/04 10:49:05;;;;;;;7.70;3.60;;;691.70;1510.40;;;;;;5115565;28;20114;-76
2021/08/04 10:51:36;;;;;;;5.85;3.20;;;691.60;1510.40;;;;;;5116429;28;20019;-77
2021/08/04 10:54:04;;;;;;;3.45;3.00;;;691.70;1510.40;;;;;;5115627;28;20049;-77
2021/08/04 10:56:32;;;;;;;3.58;2.83;;;691.70;1484.80;;;;;;5116035;28;20027;-77
2021/08/04 10:59:11;;;;;;;3.92;3.03;;;691.70;1510.40;;;;;;5115452;28;20077;-75
2021/08/04 11:01:44;;;;;;;8.70;3.20;;;691.80;1484.80;;;;;;5115853;28;20122;-77
2021/08/04 11:04:15;;;;;;;5.07;3.17;;;691.80;1484.80;;;;;;5115708;28;20026;-78
2021/08/04 11:07:09;;;;;;;5.63;3.28;;;691.80;1484.80;;;;;;5115709;28;20016;-75
2021/08/04 11:09:36;;;;;;;4.70;2.90;;;691.80;1484.80;;;;;;5115317;28;20055;-74
2021/08/04 11:12:03;;;;;;;5.90;3.30;;;691.80;1484.80;;;;;;5115775;28;20051;-74
2021/08/04 11:14:51;;;;;;;5.47;3.30;;;691.80;1484.80;;;;;;5115936;28;20024;-76
2021/08/04 11:17:19;;;;;;;22.38;3.50;;;691.80;1408.00;;;;;;5115626;28;20053;-77
2021/08/04 11:20:04;;;;;;;4.90;3.22;;;691.80;1408.00;;;;;;5115375;28;20479;-74
2021/08/04 11:22:39;;;;;;;8.30;3.38;;;691.90;1459.20;;;;;;5115290;28;20031;-77
2021/08/04 11:25:12;;;;;;;3.60;3.20;;;691.90;1459.20;;;;;;5115026;28;20020;-77
2021/08/04 11:27:46;;;;;;;6.00;3.08;;;691.90;1459.20;;;;;;5115050;28;20027;-75
2021/08/04 11:30:14;;;;;;;5.20;3.33;;;691.90;1459.20;;;;;;5123702;27;20023;-75
2021/08/04 11:32:40;;;;;;;13.82;3.75;;;691.90;1459.20;;;;;;5123259;27;20035;-74
2021/08/04 11:35:18;;;;;;;13.20;3.60;;;691.90;1459.20;;;;;;5125205;27;20034;-76
2021/08/04 11:37:45;;;;;;;11.48;3.30;;;691.90;1459.20;;;;;;5124120;27;20023;-75
2021/08/04 11:40:12;;;;;;;9.88;3.58;;;692.00;1459.20;;;;;;5123038;27;20372;-77
2021/08/04 11:42:39;;;;;;;7.25;3.63;;;692.00;1459.20;;;;;;5123612;27;20043;-75
2021/08/04 11:45:09;;;;;;;14.07;3.22;;;692.00;1459.20;;;;;;5124997;27;20088;-75
2021/08/04 11:47:35;;;;;;;13.63;2.90;;;692.00;1459.20;;;;;;5123873;27;20103;-79
2021/08/04 11:50:05;;;;;;;7.90;3.63;;;692.10;1433.60;;;;;;5122713;27;20096;-73
2021/08/04 11:52:33;;;;;;;10.77;3.60;;;692.00;1408.00;;;;;;5123254;27;20756;-74
2021/08/04 11:55:21;;;;;;;10.50;3.47;;;692.10;1433.60;;;;;;5104620;27;20493;-75
2021/08/04 11:57:55;;;;;;;12.20;3.40;;;692.10;1433.60;;;;;;5124653;27;20068;-73
2021/08/04 12:00:24;;;;;;;11.23;3.30;;;692.00;1459.20;;;;;;5123802;27;20463;-73
2021/08/04 12:02:50;;;;;;;5.05;3.40;;;692.00;1459.20;;;;;;5119550;27;20466;-76
2021/08/04 12:05:18;;;;;;;6.78;3.25;;;692.00;1459.20;;;;;;5105175;27;20106;-79
2021/08/04 12:07:44;;;;;;;6.18;3.42;;;692.00;1433.60;;;;;;5125619;27;20027;-75
2021/08/04 12:10:13;;;;;;;6.25;3.60;;;692.10;1433.60;;;;;;5124669;27;20526;-75
2021/08/04 12:12:40;;;;;;;4.63;2.88;;;692.10;1433.60;;;;;;5123788;27;20486;-77
2021/08/04 12:15:19;;;;;;;7.43;3.42;;;692.10;1433.60;;;;;;5124714;27;20053;-79
2021/08/04 12:17:45;;;;;;;6.55;3.20;;;692.10;1433.60;;;;;;5105750;27;20019;-77
2021/08/04 12:20:10;;;;;;;4.57;3.05;;;692.10;1433.60;;;;;;5122442;27;20050;-73
2021/08/04 12:22:36;;;;;;;4.10;3.00;;;692.10;1433.60;;;;;;5127907;27;20076;-76
2021/08/04 12:25:04;;;;;;;9.45;2.53;;;716.80;1459.20;;;;;;5135081;27;20023;-76
2021/08/04 12:27:45;;;;;;;4.90;3.05;;;716.80;1459.20;;;;;;5134345;27;20023;-76
2021/08/04 12:30:32;;;;;;;6.28;2.58;;;716.80;1433.60;;;;;;5134265;27;20064;-76
2021/08/04 12:38:52;;;;;;;6.40;3.20;;;716.80;1433.60;;;;;;5070759;28;20028;-75
2021/08/04 12:41:23;;;;;;;5.03;3.10;;;716.80;1433.60;;;;;;5071131;28;20055;-72
2021/08/04 12:43:54;;;;;;;3.67;2.85;;;716.80;1433.60;;;;;;5070650;28;20025;-74
2021/08/04 12:46:26;;;;;;;5.97;2.90;;;716.80;1408.00;;;;;;5071474;28;20388;-75
2021/08/04 12:48:53;;;;;;;4.72;2.90;;;716.80;1382.40;;;;;;5070770;28;20040;-74